sensor_id;sensor_type;location;lat;lon;timestamp;P1;durP1;ratioP1;P2;durP2;ratioP2
14789;SDS011;7486;51.010;10.366;2023-06-19T00:01:44;5.95;;;5.35;;
14789;SDS011;7486;51.010;10.366;2023-06-19T00:04:29;5.80;;;5.20;;
14789;SDS011;7486;51.010;10.366;2023-06-19T00:07:15;5.90;;;5.18;;
14789;SDS011;7486;51.010;10.366;2023-06-19T00:10:01;5.50;;;5.00;;
14789;SDS011;7486;51.010;10.366;2023-06-19T00:12:46;6.00;;;5.40;;
14789;SDS011;7486;51.010;10.366;2023-06-19T00:15:31;5.75;;;5.25;;
14789;SDS011;7486;51.010;10.366;2023-06-19T00:18:17;5.95;;;5.35;;
14789;SDS011;7486;51.010;10.366;2023-06-19T00:21:02;5.65;;;5.05;;
14789;SDS011;7486;51.010;10.366;2023-06-19T00:23:48;6.05;;;5.45;;
14789;SDS011;7486;51.010;10.366;2023-06-19T00:26:33;6.28;;;5.68;;
14789;SDS011;7486;51.010;10.366;2023-06-19T00:29:22;6.07;;;5.30;;
14789;SDS011;7486;51.010;10.366;2023-06-19T00:32:08;5.85;;;5.30;;
14789;SDS011;7486;51.010;10.366;2023-06-19T00:34:53;5.80;;;5.15;;
14789;SDS011;7486;51.010;10.366;2023-06-19T00:37:43;6.10;;;5.45;;
14789;SDS011;7486;51.010;10.366;2023-06-19T00:40:29;6.05;;;5.43;;
14789;SDS011;7486;51.010;10.366;2023-06-19T00:43:16;6.20;;;5.50;;
14789;SDS011;7486;51.010;10.366;2023-06-19T00:46:02;6.15;;;5.53;;
14789;SDS011;7486;51.010;10.366;2023-06-19T00:48:49;6.20;;;5.60;;
14789;SDS011;7486;51.010;10.366;2023-06-19T00:51:35;6.13;;;5.57;;
14789;SDS011;7486;51.010;10.366;2023-06-19T00:54:23;6.13;;;5.47;;
14789;SDS011;7486;51.010;10.366;2023-06-19T00:57:09;5.82;;;5.32;;
14789;SDS011;7486;51.010;10.366;2023-06-19T00:59:54;6.43;;;5.63;;
14789;SDS011;7486;51.010;10.366;2023-06-19T01:02:40;5.78;;;5.13;;
14789;SDS011;7486;51.010;10.366;2023-06-19T01:05:27;6.10;;;5.50;;
14789;SDS011;7486;51.010;10.366;2023-06-19T01:08:40;6.20;;;5.60;;
14789;SDS011;7486;51.010;10.366;2023-06-19T01:11:33;8.27;;;6.20;;
14789;SDS011;7486;51.010;10.366;2023-06-19T01:14:31;6.40;;;5.80;;
14789;SDS011;7486;51.010;10.366;2023-06-19T01:17:40;6.25;;;5.65;;
14789;SDS011;7486;51.010;10.366;2023-06-19T01:20:26;6.13;;;5.53;;
14789;SDS011;7486;51.010;10.366;2023-06-19T01:23:11;6.20;;;5.60;;
14789;SDS011;7486;51.010;10.366;2023-06-19T01:25:57;6.43;;;5.78;;
14789;SDS011;7486;51.010;10.366;2023-06-19T01:28:43;7.07;;;5.80;;
14789;SDS011;7486;51.010;10.366;2023-06-19T01:31:33;6.75;;;6.15;;
14789;SDS011;7486;51.010;10.366;2023-06-19T01:34:24;6.63;;;6.03;;
14789;SDS011;7486;51.010;10.366;2023-06-19T01:37:15;6.88;;;6.18;;
14789;SDS011;7486;51.010;10.366;2023-06-19T01:47:34;6.90;;;5.93;;
14789;SDS011;7486;51.010;10.366;2023-06-19T01:51:10;6.75;;;6.03;;
14789;SDS011;7486;51.010;10.366;2023-06-19T01:54:06;6.35;;;5.82;;
14789;SDS011;7486;51.010;10.366;2023-06-19T01:56:52;7.57;;;6.32;;
14789;SDS011;7486;51.010;10.366;2023-06-19T01:59:37;5.95;;;5.45;;
14789;SDS011;7486;51.010;10.366;2023-06-19T02:02:22;6.95;;;5.88;;
14789;SDS011;7486;51.010;10.366;2023-06-19T02:05:08;7.75;;;5.90;;
14789;SDS011;7486;51.010;10.366;2023-06-19T02:07:54;6.88;;;6.18;;
14789;SDS011;7486;51.010;10.366;2023-06-19T02:10:39;6.43;;;5.82;;
14789;SDS011;7486;51.010;10.366;2023-06-19T02:13:25;6.75;;;6.15;;
14789;SDS011;7486;51.010;10.366;2023-06-19T02:16:10;6.70;;;5.90;;
14789;SDS011;7486;51.010;10.366;2023-06-19T02:18:55;6.30;;;5.70;;
14789;SDS011;7486;51.010;10.366;2023-06-19T02:21:41;6.72;;;6.05;;
14789;SDS011;7486;51.010;10.366;2023-06-19T02:24:26;6.55;;;5.95;;
14789;SDS011;7486;51.010;10.366;2023-06-19T02:27:12;6.68;;;6.07;;
14789;SDS011;7486;51.010;10.366;2023-06-19T02:29:57;6.03;;;5.53;;
14789;SDS011;7486;51.010;10.366;2023-06-19T02:32:43;6.85;;;6.15;;
14789;SDS011;7486;51.010;10.366;2023-06-19T02:35:28;6.95;;;6.35;;
14789;SDS011;7486;51.010;10.366;2023-06-19T02:38:14;6.60;;;6.00;;
14789;SDS011;7486;51.010;10.366;2023-06-19T02:41:00;6.72;;;6.13;;
14789;SDS011;7486;51.010;10.366;2023-06-19T02:43:45;6.75;;;6.15;;
14789;SDS011;7486;51.010;10.366;2023-06-19T02:46:31;6.53;;;6.00;;
14789;SDS011;7486;51.010;10.366;2023-06-19T02:49:16;7.35;;;6.60;;
14789;SDS011;7486;51.010;10.366;2023-06-19T02:52:03;7.38;;;6.68;;
14789;SDS011;7486;51.010;10.366;2023-06-19T02:54:49;7.72;;;7.03;;
14789;SDS011;7486;51.010;10.366;2023-06-19T02:57:35;6.90;;;6.30;;
14789;SDS011;7486;51.010;10.366;2023-06-19T03:00:20;7.50;;;6.63;;
14789;SDS011;7486;51.010;10.366;2023-06-19T03:03:07;6.50;;;5.90;;
14789;SDS011;7486;51.010;10.366;2023-06-19T03:05:53;6.80;;;6.20;;
14789;SDS011;7486;51.010;10.366;2023-06-19T03:08:39;6.68;;;6.07;;
14789;SDS011;7486;51.010;10.366;2023-06-19T03:11:24;6.57;;;5.95;;
14789;SDS011;7486;51.010;10.366;2023-06-19T03:14:09;7.53;;;6.85;;
14789;SDS011;7486;51.010;10.366;2023-06-19T03:16:55;7.57;;;6.70;;
14789;SDS011;7486;51.010;10.366;2023-06-19T03:19:41;7.45;;;6.75;;
14789;SDS011;7486;51.010;10.366;2023-06-19T03:22:26;7.13;;;6.43;;
14789;SDS011;7486;51.010;10.366;2023-06-19T03:25:12;7.47;;;6.78;;
14789;SDS011;7486;51.010;10.366;2023-06-19T03:27:57;7.47;;;6.78;;
14789;SDS011;7486;51.010;10.366;2023-06-19T03:30:44;7.20;;;6.55;;
14789;SDS011;7486;51.010;10.366;2023-06-19T03:33:32;7.70;;;6.57;;
14789;SDS011;7486;51.010;10.366;2023-06-19T03:36:19;7.45;;;6.75;;
14789;SDS011;7486;51.010;10.366;2023-06-19T03:39:08;7.75;;;6.55;;
14789;SDS011;7486;51.010;10.366;2023-06-19T03:41:55;7.72;;;6.95;;
14789;SDS011;7486;51.010;10.366;2023-06-19T03:44:41;7.75;;;6.57;;
14789;SDS011;7486;51.010;10.366;2023-06-19T03:47:26;8.48;;;6.70;;
14789;SDS011;7486;51.010;10.366;2023-06-19T03:50:12;6.72;;;6.13;;
14789;SDS011;7486;51.010;10.366;2023-06-19T03:53:15;6.85;;;6.22;;
14789;SDS011;7486;51.010;10.366;2023-06-19T03:56:00;7.40;;;6.70;;
14789;SDS011;7486;51.010;10.366;2023-06-19T03:58:46;6.72;;;6.20;;
14789;SDS011;7486;51.010;10.366;2023-06-19T04:01:31;7.55;;;6.80;;
14789;SDS011;7486;51.010;10.366;2023-06-19T04:04:17;7.18;;;6.47;;
14789;SDS011;7486;51.010;10.366;2023-06-19T04:07:02;6.60;;;6.00;;
14789;SDS011;7486;51.010;10.366;2023-06-19T04:09:48;7.72;;;7.03;;
14789;SDS011;7486;51.010;10.366;2023-06-19T04:12:35;7.13;;;6.47;;
14789;SDS011;7486;51.010;10.366;2023-06-19T04:15:22;7.10;;;5.90;;
14789;SDS011;7486;51.010;10.366;2023-06-19T04:18:08;8.45;;;6.25;;
14789;SDS011;7486;51.010;10.366;2023-06-19T04:20:54;7.18;;;6.47;;
14789;SDS011;7486;51.010;10.366;2023-06-19T04:23:40;6.82;;;6.22;;
14789;SDS011;7486;51.010;10.366;2023-06-19T04:26:26;7.55;;;6.85;;
14789;SDS011;7486;51.010;10.366;2023-06-19T04:29:11;7.80;;;6.85;;
14789;SDS011;7486;51.010;10.366;2023-06-19T04:32:00;7.18;;;6.47;;
14789;SDS011;7486;51.010;10.366;2023-06-19T04:34:46;6.93;;;6.32;;
14789;SDS011;7486;51.010;10.366;2023-06-19T04:37:32;8.25;;;6.95;;
14789;SDS011;7486;51.010;10.366;2023-06-19T04:40:17;8.10;;;6.65;;
14789;SDS011;7486;51.010;10.366;2023-06-19T04:43:03;7.78;;;7.07;;
14789;SDS011;7486;51.010;10.366;2023-06-19T04:45:48;7.82;;;7.05;;
14789;SDS011;7486;51.010;10.366;2023-06-19T04:48:35;7.35;;;6.65;;
14789;SDS011;7486;51.010;10.366;2023-06-19T04:51:20;7.70;;;7.00;;
14789;SDS011;7486;51.010;10.366;2023-06-19T04:54:06;7.80;;;7.10;;
14789;SDS011;7486;51.010;10.366;2023-06-19T04:56:58;7.65;;;6.85;;
14789;SDS011;7486;51.010;10.366;2023-06-19T04:59:44;8.10;;;7.18;;
14789;SDS011;7486;51.010;10.366;2023-06-19T05:02:30;7.85;;;7.10;;
14789;SDS011;7486;51.010;10.366;2023-06-19T05:05:17;8.07;;;7.07;;
14789;SDS011;7486;51.010;10.366;2023-06-19T05:08:08;8.10;;;7.22;;
14789;SDS011;7486;51.010;10.366;2023-06-19T05:10:53;7.82;;;7.10;;
14789;SDS011;7486;51.010;10.366;2023-06-19T05:13:39;7.85;;;7.03;;
14789;SDS011;7486;51.010;10.366;2023-06-19T05:16:24;8.80;;;7.35;;
14789;SDS011;7486;51.010;10.366;2023-06-19T05:19:10;7.93;;;7.22;;
14789;SDS011;7486;51.010;10.366;2023-06-19T05:21:55;8.07;;;7.28;;
14789;SDS011;7486;51.010;10.366;2023-06-19T05:24:40;7.55;;;6.85;;
14789;SDS011;7486;51.010;10.366;2023-06-19T05:27:26;8.15;;;7.30;;
14789;SDS011;7486;51.010;10.366;2023-06-19T05:30:12;7.50;;;6.80;;
14789;SDS011;7486;51.010;10.366;2023-06-19T05:32:58;8.45;;;7.65;;
14789;SDS011;7486;51.010;10.366;2023-06-19T05:35:44;8.18;;;7.38;;
14789;SDS011;7486;51.010;10.366;2023-06-19T05:38:29;7.63;;;6.93;;
14789;SDS011;7486;51.010;10.366;2023-06-19T05:41:15;7.80;;;7.00;;
14789;SDS011;7486;51.010;10.366;2023-06-19T05:44:00;7.25;;;6.55;;
14789;SDS011;7486;51.010;10.366;2023-06-19T05:46:46;7.18;;;6.45;;
14789;SDS011;7486;51.010;10.366;2023-06-19T05:49:31;8.35;;;7.18;;
14789;SDS011;7486;51.010;10.366;2023-06-19T05:52:16;7.75;;;6.95;;
14789;SDS011;7486;51.010;10.366;2023-06-19T05:55:02;7.53;;;6.82;;
14789;SDS011;7486;51.010;10.366;2023-06-19T05:57:48;7.82;;;7.10;;
14789;SDS011;7486;51.010;10.366;2023-06-19T06:00:33;7.80;;;6.68;;
14789;SDS011;7486;51.010;10.366;2023-06-19T06:03:19;8.23;;;7.10;;
14789;SDS011;7486;51.010;10.366;2023-06-19T06:06:04;7.03;;;6.43;;
14789;SDS011;7486;51.010;10.366;2023-06-19T06:08:50;7.93;;;7.18;;
14789;SDS011;7486;51.010;10.366;2023-06-19T06:11:36;8.00;;;7.22;;
14789;SDS011;7486;51.010;10.366;2023-06-19T06:14:23;7.60;;;6.90;;
14789;SDS011;7486;51.010;10.366;2023-06-19T06:17:08;7.88;;;7.07;;
14789;SDS011;7486;51.010;10.366;2023-06-19T06:19:54;8.48;;;7.53;;
14789;SDS011;7486;51.010;10.366;2023-06-19T06:22:40;8.10;;;7.30;;
14789;SDS011;7486;51.010;10.366;2023-06-19T06:25:26;7.78;;;7.00;;
14789;SDS011;7486;51.010;10.366;2023-06-19T06:28:11;8.63;;;7.82;;
14789;SDS011;7486;51.010;10.366;2023-06-19T06:30:57;7.70;;;7.00;;
14789;SDS011;7486;51.010;10.366;2023-06-19T06:33:42;7.88;;;7.07;;
14789;SDS011;7486;51.010;10.366;2023-06-19T06:36:27;9.20;;;7.38;;
14789;SDS011;7486;51.010;10.366;2023-06-19T06:39:20;8.35;;;7.53;;
14789;SDS011;7486;51.010;10.366;2023-06-19T06:42:06;7.70;;;7.00;;
14789;SDS011;7486;51.010;10.366;2023-06-19T06:44:51;7.10;;;6.32;;
14789;SDS011;7486;51.010;10.366;2023-06-19T06:47:37;8.75;;;7.00;;
14789;SDS011;7486;51.010;10.366;2023-06-19T06:50:22;7.80;;;6.43;;
14789;SDS011;7486;51.010;10.366;2023-06-19T06:53:08;8.85;;;6.80;;
14789;SDS011;7486;51.010;10.366;2023-06-19T06:55:56;7.93;;;7.05;;
14789;SDS011;7486;51.010;10.366;2023-06-19T06:58:42;7.55;;;6.75;;
14789;SDS011;7486;51.010;10.366;2023-06-19T07:01:28;8.00;;;7.20;;
14789;SDS011;7486;51.010;10.366;2023-06-19T07:04:14;7.57;;;6.97;;
14789;SDS011;7486;51.010;10.366;2023-06-19T07:06:59;7.93;;;7.13;;
14789;SDS011;7486;51.010;10.366;2023-06-19T07:09:44;7.72;;;6.93;;
14789;SDS011;7486;51.010;10.366;2023-06-19T07:12:30;7.13;;;6.43;;
14789;SDS011;7486;51.010;10.366;2023-06-19T07:15:15;6.78;;;6.10;;
14789;SDS011;7486;51.010;10.366;2023-06-19T07:18:01;7.85;;;6.40;;
14789;SDS011;7486;51.010;10.366;2023-06-19T07:20:46;7.82;;;6.28;;
14789;SDS011;7486;51.010;10.366;2023-06-19T07:23:32;6.65;;;6.05;;
14789;SDS011;7486;51.010;10.366;2023-06-19T07:26:19;6.57;;;5.93;;
14789;SDS011;7486;51.010;10.366;2023-06-19T07:29:05;7.15;;;6.40;;
14789;SDS011;7486;51.010;10.366;2023-06-19T07:31:50;7.38;;;6.40;;
14789;SDS011;7486;51.010;10.366;2023-06-19T07:34:35;7.15;;;6.30;;
14789;SDS011;7486;51.010;10.366;2023-06-19T07:37:21;6.88;;;5.90;;
14789;SDS011;7486;51.010;10.366;2023-06-19T07:40:07;7.03;;;6.07;;
14789;SDS011;7486;51.010;10.366;2023-06-19T07:42:54;6.68;;;6.07;;
14789;SDS011;7486;51.010;10.366;2023-06-19T07:45:41;6.50;;;5.90;;
14789;SDS011;7486;51.010;10.366;2023-06-19T07:48:27;6.57;;;5.97;;
14789;SDS011;7486;51.010;10.366;2023-06-19T07:51:14;6.63;;;6.03;;
14789;SDS011;7486;51.010;10.366;2023-06-19T07:54:01;6.90;;;6.28;;
14789;SDS011;7486;51.010;10.366;2023-06-19T07:56:54;6.57;;;5.97;;
14789;SDS011;7486;51.010;10.366;2023-06-19T07:59:40;6.70;;;6.10;;
14789;SDS011;7486;51.010;10.366;2023-06-19T08:02:27;6.90;;;6.20;;
14789;SDS011;7486;51.010;10.366;2023-06-19T08:05:19;6.75;;;6.05;;
14789;SDS011;7486;51.010;10.366;2023-06-19T08:08:19;7.22;;;6.18;;
14789;SDS011;7486;51.010;10.366;2023-06-19T08:11:04;6.05;;;5.55;;
14789;SDS011;7486;51.010;10.366;2023-06-19T08:13:50;7.57;;;6.38;;
14789;SDS011;7486;51.010;10.366;2023-06-19T08:16:36;6.65;;;5.78;;
14789;SDS011;7486;51.010;10.366;2023-06-19T08:19:23;6.53;;;5.93;;
14789;SDS011;7486;51.010;10.366;2023-06-19T08:22:15;6.68;;;5.97;;
14789;SDS011;7486;51.010;10.366;2023-06-19T08:25:06;6.20;;;5.60;;
14789;SDS011;7486;51.010;10.366;2023-06-19T08:27:54;6.68;;;6.07;;
14789;SDS011;7486;51.010;10.366;2023-06-19T08:30:41;6.35;;;5.80;;
14789;SDS011;7486;51.010;10.366;2023-06-19T08:33:27;6.20;;;5.60;;
14789;SDS011;7486;51.010;10.366;2023-06-19T08:36:15;6.13;;;5.53;;
14789;SDS011;7486;51.010;10.366;2023-06-19T08:39:04;6.43;;;5.45;;
14789;SDS011;7486;51.010;10.366;2023-06-19T08:41:52;5.65;;;5.07;;
14789;SDS011;7486;51.010;10.366;2023-06-19T08:44:39;5.18;;;4.78;;
14789;SDS011;7486;51.010;10.366;2023-06-19T08:47:34;5.45;;;5.00;;
14789;SDS011;7486;51.010;10.366;2023-06-19T08:50:20;5.55;;;5.05;;
14789;SDS011;7486;51.010;10.366;2023-06-19T08:53:05;5.47;;;4.97;;
14789;SDS011;7486;51.010;10.366;2023-06-19T08:55:51;5.00;;;4.60;;
14789;SDS011;7486;51.010;10.366;2023-06-19T08:58:36;5.70;;;5.20;;
14789;SDS011;7486;51.010;10.366;2023-06-19T09:01:21;5.25;;;4.85;;
14789;SDS011;7486;51.010;10.366;2023-06-19T09:04:08;5.50;;;5.00;;
14789;SDS011;7486;51.010;10.366;2023-06-19T09:07:01;6.65;;;5.18;;
14789;SDS011;7486;51.010;10.366;2023-06-19T09:09:59;5.22;;;4.72;;
14789;SDS011;7486;51.010;10.366;2023-06-19T09:13:01;4.97;;;4.47;;
14789;SDS011;7486;51.010;10.366;2023-06-19T09:15:56;5.35;;;4.60;;
14789;SDS011;7486;51.010;10.366;2023-06-19T09:18:47;5.60;;;5.10;;
14789;SDS011;7486;51.010;10.366;2023-06-19T09:21:39;4.75;;;4.35;;
14789;SDS011;7486;51.010;10.366;2023-06-19T09:24:24;5.30;;;4.80;;
14789;SDS011;7486;51.010;10.366;2023-06-19T09:27:21;5.03;;;4.55;;
14789;SDS011;7486;51.010;10.366;2023-06-19T09:30:06;4.93;;;4.50;;
14789;SDS011;7486;51.010;10.366;2023-06-19T09:32:55;4.93;;;4.38;;
14789;SDS011;7486;51.010;10.366;2023-06-19T09:35:40;4.68;;;4.28;;
14789;SDS011;7486;51.010;10.366;2023-06-19T09:38:27;5.00;;;4.50;;
14789;SDS011;7486;51.010;10.366;2023-06-19T09:41:14;5.15;;;4.65;;
14789;SDS011;7486;51.010;10.366;2023-06-19T09:44:01;4.80;;;4.40;;
14789;SDS011;7486;51.010;10.366;2023-06-19T09:46:47;5.10;;;4.70;;
14789;SDS011;7486;51.010;10.366;2023-06-19T09:49:34;4.95;;;4.53;;
14789;SDS011;7486;51.010;10.366;2023-06-19T09:52:22;4.78;;;4.38;;
14789;SDS011;7486;51.010;10.366;2023-06-19T09:55:12;5.00;;;4.20;;
14789;SDS011;7486;51.010;10.366;2023-06-19T09:57:59;4.45;;;4.05;;
14789;SDS011;7486;51.010;10.366;2023-06-19T10:00:46;4.38;;;4.07;;
14789;SDS011;7486;51.010;10.366;2023-06-19T10:03:33;4.95;;;4.18;;
14789;SDS011;7486;51.010;10.366;2023-06-19T10:06:22;4.57;;;4.18;;
14789;SDS011;7486;51.010;10.366;2023-06-19T10:09:08;4.07;;;3.78;;
14789;SDS011;7486;51.010;10.366;2023-06-19T10:11:54;4.15;;;3.80;;
14789;SDS011;7486;51.010;10.366;2023-06-19T10:14:45;4.10;;;3.80;;
14789;SDS011;7486;51.010;10.366;2023-06-19T10:17:32;4.00;;;3.70;;
14789;SDS011;7486;51.010;10.366;2023-06-19T10:23:23;4.10;;;3.70;;
14789;SDS011;7486;51.010;10.366;2023-06-19T10:26:15;4.10;;;3.78;;
14789;SDS011;7486;51.010;10.366;2023-06-19T10:29:01;3.80;;;3.50;;
14789;SDS011;7486;51.010;10.366;2023-06-19T10:31:47;3.92;;;3.55;;
14789;SDS011;7486;51.010;10.366;2023-06-19T10:34:33;3.70;;;3.40;;
14789;SDS011;7486;51.010;10.366;2023-06-19T10:37:20;5.53;;;3.33;;
14789;SDS011;7486;51.010;10.366;2023-06-19T10:40:17;3.95;;;3.55;;
14789;SDS011;7486;51.010;10.366;2023-06-19T10:43:03;3.80;;;3.50;;
14789;SDS011;7486;51.010;10.366;2023-06-19T10:45:49;4.57;;;3.20;;
14789;SDS011;7486;51.010;10.366;2023-06-19T10:48:35;4.00;;;3.47;;
14789;SDS011;7486;51.010;10.366;2023-06-19T10:51:20;4.60;;;3.63;;
14789;SDS011;7486;51.010;10.366;2023-06-19T10:54:07;3.63;;;3.28;;
14789;SDS011;7486;51.010;10.366;2023-06-19T10:56:53;4.00;;;3.70;;
14789;SDS011;7486;51.010;10.366;2023-06-19T10:59:38;3.92;;;3.45;;
14789;SDS011;7486;51.010;10.366;2023-06-19T11:02:24;3.95;;;3.50;;
14789;SDS011;7486;51.010;10.366;2023-06-19T11:05:11;3.78;;;3.47;;
14789;SDS011;7486;51.010;10.366;2023-06-19T11:07:57;4.05;;;3.45;;
14789;SDS011;7486;51.010;10.366;2023-06-19T11:10:43;4.20;;;3.80;;
14789;SDS011;7486;51.010;10.366;2023-06-19T11:13:29;3.60;;;3.30;;
14789;SDS011;7486;51.010;10.366;2023-06-19T11:16:14;3.63;;;3.25;;
14789;SDS011;7486;51.010;10.366;2023-06-19T11:19:00;3.70;;;3.40;;
14789;SDS011;7486;51.010;10.366;2023-06-19T11:21:46;3.85;;;3.33;;
14789;SDS011;7486;51.010;10.366;2023-06-19T11:24:33;3.33;;;3.13;;
14789;SDS011;7486;51.010;10.366;2023-06-19T11:27:20;4.20;;;3.80;;
14789;SDS011;7486;51.010;10.366;2023-06-19T11:30:08;3.90;;;3.60;;
14789;SDS011;7486;51.010;10.366;2023-06-19T11:32:54;4.60;;;3.50;;
14789;SDS011;7486;51.010;10.366;2023-06-19T11:35:39;3.75;;;3.47;;
14789;SDS011;7486;51.010;10.366;2023-06-19T11:38:25;3.78;;;3.40;;
14789;SDS011;7486;51.010;10.366;2023-06-19T11:41:11;3.72;;;3.42;;
14789;SDS011;7486;51.010;10.366;2023-06-19T11:43:58;3.80;;;3.40;;
14789;SDS011;7486;51.010;10.366;2023-06-19T11:46:44;3.80;;;3.40;;
14789;SDS011;7486;51.010;10.366;2023-06-19T11:49:35;4.07;;;3.65;;
14789;SDS011;7486;51.010;10.366;2023-06-19T11:52:21;4.00;;;3.70;;
14789;SDS011;7486;51.010;10.366;2023-06-19T11:55:07;3.88;;;3.50;;
14789;SDS011;7486;51.010;10.366;2023-06-19T11:57:53;3.97;;;3.20;;
14789;SDS011;7486;51.010;10.366;2023-06-19T12:00:38;3.25;;;2.95;;
14789;SDS011;7486;51.010;10.366;2023-06-19T12:03:23;4.03;;;3.40;;
14789;SDS011;7486;51.010;10.366;2023-06-19T12:06:09;3.63;;;3.15;;
14789;SDS011;7486;51.010;10.366;2023-06-19T12:08:55;3.10;;;2.80;;
14789;SDS011;7486;51.010;10.366;2023-06-19T12:11:40;3.22;;;2.92;;
14789;SDS011;7486;51.010;10.366;2023-06-19T12:14:26;3.80;;;3.50;;
14789;SDS011;7486;51.010;10.366;2023-06-19T12:17:12;3.75;;;3.20;;
14789;SDS011;7486;51.010;10.366;2023-06-19T12:19:58;3.17;;;2.97;;
14789;SDS011;7486;51.010;10.366;2023-06-19T12:22:44;3.75;;;3.45;;
14789;SDS011;7486;51.010;10.366;2023-06-19T12:25:30;3.67;;;3.35;;
14789;SDS011;7486;51.010;10.366;2023-06-19T12:28:16;3.60;;;3.25;;
14789;SDS011;7486;51.010;10.366;2023-06-19T12:31:02;4.05;;;3.22;;
14789;SDS011;7486;51.010;10.366;2023-06-19T12:33:47;3.60;;;3.30;;
14789;SDS011;7486;51.010;10.366;2023-06-19T12:36:33;3.90;;;3.60;;
14789;SDS011;7486;51.010;10.366;2023-06-19T12:39:18;3.70;;;3.30;;
14789;SDS011;7486;51.010;10.366;2023-06-19T12:42:04;4.15;;;3.47;;
14789;SDS011;7486;51.010;10.366;2023-06-19T12:44:49;4.13;;;3.72;;
14789;SDS011;7486;51.010;10.366;2023-06-19T12:47:36;3.70;;;3.40;;
14789;SDS011;7486;51.010;10.366;2023-06-19T12:50:22;3.70;;;3.40;;
14789;SDS011;7486;51.010;10.366;2023-06-19T12:53:08;3.90;;;3.60;;
14789;SDS011;7486;51.010;10.366;2023-06-19T12:55:53;3.70;;;3.40;;
14789;SDS011;7486;51.010;10.366;2023-06-19T12:58:48;3.90;;;3.60;;
14789;SDS011;7486;51.010;10.366;2023-06-19T13:01:36;3.85;;;3.45;;
14789;SDS011;7486;51.010;10.366;2023-06-19T13:04:31;3.80;;;3.45;;
14789;SDS011;7486;51.010;10.366;2023-06-19T13:07:18;4.38;;;3.50;;
14789;SDS011;7486;51.010;10.366;2023-06-19T13:10:08;3.75;;;3.45;;
14789;SDS011;7486;51.010;10.366;2023-06-19T13:12:53;3.97;;;3.63;;
14789;SDS011;7486;51.010;10.366;2023-06-19T13:15:39;4.25;;;3.70;;
14789;SDS011;7486;51.010;10.366;2023-06-19T13:18:24;4.20;;;3.72;;
14789;SDS011;7486;51.010;10.366;2023-06-19T13:21:10;3.90;;;3.60;;
14789;SDS011;7486;51.010;10.366;2023-06-19T13:23:57;3.58;;;3.28;;
14789;SDS011;7486;51.010;10.366;2023-06-19T13:26:43;4.13;;;3.72;;
14789;SDS011;7486;51.010;10.366;2023-06-19T13:29:29;4.32;;;3.92;;
14789;SDS011;7486;51.010;10.366;2023-06-19T13:32:14;4.32;;;3.85;;
14789;SDS011;7486;51.010;10.366;2023-06-19T13:34:59;4.28;;;3.85;;
14789;SDS011;7486;51.010;10.366;2023-06-19T13:37:45;5.00;;;3.80;;
14789;SDS011;7486;51.010;10.366;2023-06-19T13:40:31;4.13;;;3.78;;
14789;SDS011;7486;51.010;10.366;2023-06-19T13:43:16;3.80;;;3.50;;
14789;SDS011;7486;51.010;10.366;2023-06-19T13:46:02;3.70;;;3.35;;
14789;SDS011;7486;51.010;10.366;2023-06-19T13:48:48;3.90;;;3.60;;
14789;SDS011;7486;51.010;10.366;2023-06-19T13:51:34;4.18;;;3.78;;
14789;SDS011;7486;51.010;10.366;2023-06-19T13:54:19;3.97;;;3.40;;
14789;SDS011;7486;51.010;10.366;2023-06-19T13:57:05;4.00;;;3.70;;
14789;SDS011;7486;51.010;10.366;2023-06-19T13:59:51;3.78;;;3.47;;
14789;SDS011;7486;51.010;10.366;2023-06-19T14:02:37;5.82;;;3.80;;
14789;SDS011;7486;51.010;10.366;2023-06-19T14:05:23;4.80;;;3.50;;
14789;SDS011;7486;51.010;10.366;2023-06-19T14:08:09;3.60;;;3.38;;
14789;SDS011;7486;51.010;10.366;2023-06-19T14:10:55;5.35;;;3.60;;
14789;SDS011;7486;51.010;10.366;2023-06-19T14:13:40;6.28;;;3.35;;
14789;SDS011;7486;51.010;10.366;2023-06-19T14:16:26;3.88;;;3.58;;
14789;SDS011;7486;51.010;10.366;2023-06-19T14:19:12;4.13;;;3.67;;
14789;SDS011;7486;51.010;10.366;2023-06-19T14:21:58;3.60;;;3.30;;
14789;SDS011;7486;51.010;10.366;2023-06-19T14:24:44;3.83;;;3.53;;
14789;SDS011;7486;51.010;10.366;2023-06-19T14:27:29;3.55;;;3.25;;
14789;SDS011;7486;51.010;10.366;2023-06-19T14:30:15;3.40;;;3.17;;
14789;SDS011;7486;51.010;10.366;2023-06-19T14:33:01;3.60;;;3.20;;
14789;SDS011;7486;51.010;10.366;2023-06-19T14:35:46;3.83;;;3.33;;
14789;SDS011;7486;51.010;10.366;2023-06-19T14:38:32;3.45;;;3.15;;
14789;SDS011;7486;51.010;10.366;2023-06-19T14:41:19;3.75;;;3.45;;
14789;SDS011;7486;51.010;10.366;2023-06-19T14:44:04;3.60;;;3.30;;
14789;SDS011;7486;51.010;10.366;2023-06-19T14:46:52;4.05;;;3.55;;
14789;SDS011;7486;51.010;10.366;2023-06-19T14:49:38;4.00;;;3.20;;
14789;SDS011;7486;51.010;10.366;2023-06-19T14:52:23;3.65;;;3.35;;
14789;SDS011;7486;51.010;10.366;2023-06-19T14:55:10;6.70;;;3.33;;
14789;SDS011;7486;51.010;10.366;2023-06-19T14:57:55;5.43;;;3.80;;
14789;SDS011;7486;51.010;10.366;2023-06-19T15:00:41;3.70;;;3.40;;
14789;SDS011;7486;51.010;10.366;2023-06-19T15:03:26;4.40;;;3.20;;
14789;SDS011;7486;51.010;10.366;2023-06-19T15:06:12;4.18;;;3.13;;
14789;SDS011;7486;51.010;10.366;2023-06-19T15:08:58;3.60;;;3.30;;
14789;SDS011;7486;51.010;10.366;2023-06-19T15:11:47;3.38;;;3.08;;
14789;SDS011;7486;51.010;10.366;2023-06-19T15:14:32;4.00;;;3.70;;
14789;SDS011;7486;51.010;10.366;2023-06-19T15:17:18;3.20;;;3.00;;
14789;SDS011;7486;51.010;10.366;2023-06-19T15:20:04;3.60;;;3.30;;
14789;SDS011;7486;51.010;10.366;2023-06-19T15:22:50;6.25;;;3.30;;
14789;SDS011;7486;51.010;10.366;2023-06-19T15:25:37;5.65;;;3.28;;
14789;SDS011;7486;51.010;10.366;2023-06-19T15:28:22;5.05;;;3.60;;
14789;SDS011;7486;51.010;10.366;2023-06-19T15:31:09;6.07;;;3.85;;
14789;SDS011;7486;51.010;10.366;2023-06-19T15:33:54;5.60;;;3.60;;
14789;SDS011;7486;51.010;10.366;2023-06-19T15:36:40;4.50;;;3.60;;
14789;SDS011;7486;51.010;10.366;2023-06-19T15:39:25;4.43;;;3.53;;
14789;SDS011;7486;51.010;10.366;2023-06-19T15:42:11;7.10;;;4.25;;
14789;SDS011;7486;51.010;10.366;2023-06-19T15:44:57;4.43;;;3.80;;
14789;SDS011;7486;51.010;10.366;2023-06-19T15:47:45;5.13;;;3.45;;
14789;SDS011;7486;51.010;10.366;2023-06-19T15:50:30;11.52;;;3.78;;
14789;SDS011;7486;51.010;10.366;2023-06-19T15:53:15;62.20;;;7.35;;
14789;SDS011;7486;51.010;10.366;2023-06-19T15:56:02;9.55;;;3.38;;
14789;SDS011;7486;51.010;10.366;2023-06-19T15:58:48;7.07;;;3.50;;
14789;SDS011;7486;51.010;10.366;2023-06-19T16:01:34;3.85;;;3.47;;
14789;SDS011;7486;51.010;10.366;2023-06-19T16:04:19;8.75;;;3.53;;
14789;SDS011;7486;51.010;10.366;2023-06-19T16:07:06;5.55;;;3.45;;
14789;SDS011;7486;51.010;10.366;2023-06-19T16:09:51;4.60;;;3.50;;
14789;SDS011;7486;51.010;10.366;2023-06-19T16:12:40;4.75;;;3.33;;
14789;SDS011;7486;51.010;10.366;2023-06-19T16:15:25;5.32;;;3.40;;
14789;SDS011;7486;51.010;10.366;2023-06-19T16:18:11;3.88;;;3.47;;
14789;SDS011;7486;51.010;10.366;2023-06-19T16:20:56;3.95;;;3.55;;
14789;SDS011;7486;51.010;10.366;2023-06-19T16:23:42;3.60;;;3.30;;
14789;SDS011;7486;51.010;10.366;2023-06-19T16:26:28;4.60;;;3.35;;
14789;SDS011;7486;51.010;10.366;2023-06-19T16:29:13;3.30;;;3.00;;
14789;SDS011;7486;51.010;10.366;2023-06-19T16:31:58;3.60;;;3.30;;
14789;SDS011;7486;51.010;10.366;2023-06-19T16:34:54;3.13;;;2.92;;
14789;SDS011;7486;51.010;10.366;2023-06-19T16:37:40;3.17;;;2.90;;
14789;SDS011;7486;51.010;10.366;2023-06-19T16:40:25;3.50;;;3.20;;
14789;SDS011;7486;51.010;10.366;2023-06-19T16:43:11;3.28;;;2.97;;
14789;SDS011;7486;51.010;10.366;2023-06-19T16:45:57;3.45;;;3.15;;
14789;SDS011;7486;51.010;10.366;2023-06-19T16:48:43;3.60;;;3.30;;
14789;SDS011;7486;51.010;10.366;2023-06-19T16:51:28;3.40;;;3.10;;
14789;SDS011;7486;51.010;10.366;2023-06-19T16:54:13;3.30;;;3.00;;
14789;SDS011;7486;51.010;10.366;2023-06-19T16:56:59;5.22;;;2.80;;